x

Virginia Beach 64 Nm East Of Virginia Beach, Va (44014) Wave Buoy

2:50 - Tue 5th May 2015 All times are EDT. -4 hours from GMT.

  • Sig Wave height 3.0ft
  • Swell Direction
  • Peak Period 8s
  • Average Period 6s
  • Wind
    13mph, 16mph gusts
  • Sea Temp 60°f
  • Aire Temp 62°f
  • Sea Pressure 1026.2mb
  • Virginia Beach 64 Nm East Of Virginia Beach, Va
  • Virginia Beach 64 Nm East Of Virginia Beach, Va

More Historic Weather Station data

Upgrade to MSW Pro to gain access to the past 30 days of data for over 8000 Wavebouys and Weather Stations around the globe.

Join Pro

Comparision Forecast

View Surf forecast
   
mar 05/05 2:50 3ft 8s 6s 13 16 mph 1026.2mb 60f 62f
1:50 3.5ft 9s 5s 16 18 mph 1026.5mb 60f 62f
12:50 3.5ft 9s 5s 16 18 mph 1026.5mb 61f 63f
lun 05/04 11:50 3ft 9s 5s 13 18 mph 1026.4mb 62f 64f
10:50 3.5ft 11s 6s 16 18 mph 1026.3mb 62f 64f
9:50 3ft 9s 6s 16 18 mph 1026.1mb 62f 64f
8:50 3ft 10s 6s 13 16 mph 1025.7mb 62f 65f
7:50 3ft 10s 7s 13 16 mph 1025.3mb 62f 65f
6:50 3.5ft 10s 7s 11 13 mph 1025.4mb 62f 64f
5:50 3.5ft 10s 7s 11 13 mph 1025.6mb 62f 63f
4:50 2.5ft 10s 8s 11 13 mph 1025.6mb 62f 64f
3:50 3.5ft 11s 8s 9 11 mph 1025.9mb 62f 63f
2:50 3ft 10s 8s 9 11 mph 1026.3mb 62f 62f
1:50 3ft 10s 8s 9 11 mph 1026.5mb 62f 61f
12:50 3.5ft 12s 8s 9 11 mph 1026.6mb 61f 60f
11:50 3.5ft 10s 8s 9
mph
1026.8mb 61f 60f
10:50 3.5ft 11s 8s 9 11 mph 1026.6mb 61f 59f
9:50 3.5ft 9s 8s 7 9 mph 1026.2mb 60f 59f
8:50 3.5ft 10s 8s 7
mph
1025.9mb 60f 59f
7:50 4ft 10s 8s 7 9 mph 1025.6mb 59f 60f
6:50 3.5ft 10s 8s 9 13 mph 1024.8mb 60f 60f
5:50 4.5ft 9s 8s 9 11 mph 1023.9mb 60f 60f
4:50 4.5ft 11s 8s 11 13 mph 1023.6mb 60f 60f
3:50 4.5ft 11s 7s 11 13 mph 1023.5mb 61f 60f
2:50 5ft 9s 8s 11 16 mph 1023.1mb 61f 62f
1:50 5ft 10s 8s 13 18 mph 1023.1mb 61f 63f
12:50 4.5ft 10s 8s 13 18 mph 1023mb 62f 62f
dom 05/03 11:50 4.5ft 10s 8s 13 18 mph 1022.6mb 62f 62f
10:50 4.5ft 11s 8s 13 16 mph 1022.3mb 62f 63f
9:50 4.5ft 11s  -  11 13 mph 1021.9mb 63f 64f
8:50 4.5ft 10s 8s 9 11 mph 1021.3mb 63f 63f
7:50 4.5ft 11s 8s 9 11 mph 1021mb 63f 63f
6:50 4.5ft 11s 8s 7
mph
1020.8mb 63f 64f
5:50 4.5ft 12s 8s 4
mph
1020.6mb 63f 64f
4:50 5ft 13s 8s 4
mph
1020.4mb 63f 63f
3:50 5ft 13s 7s 4
mph
1020.6mb 63f 62f
2:50 5ft 11s 7s 4 7 mph 1020.9mb 62f 61f
1:50 5.5ft 11s 8s 7
mph
1020.9mb 62f 59f
12:50 6ft 11s 8s 4 7 mph 1021mb 62f 58f
11:50 6ft 11s 8s 9 11 mph 1021.1mb 62f 57f
10:50 6.5ft 10s 8s 7 11 mph 1020.8mb 61f 56f
9:50 6ft 9s 8s 9 11 mph 1020.2mb 60f 56f
8:50 6.5ft 10s 8s 9 13 mph 1020mb 60f 57f
7:50 6ft 9s 8s 7 9 mph 1019.7mb 60f 57f
6:50 6ft 11s 8s 4 7 mph 1019.4mb 56f 55f
5:50 5.5ft 11s 7s 4 7 mph 1018.9mb 56f 54f
4:50 6.5ft 11s 8s 4 7 mph 1018.7mb 53f 52f
3:50 6.5ft 11s 8s 4 7 mph 1018.3mb 55f 53f
2:50 7ft 11s 7s 7 9 mph 1018mb 60f 53f
1:50 7ft 11s 8s 4 7 mph 1017.8mb 62f 56f
12:50 7.5ft 11s 7s 7 9 mph 1017.9mb 63f 57f
sáb 05/02 11:50 8ft 11s 7s 4 7 mph 1017.7mb 63f 57f
10:50 8.5ft 11s 7s 7 9 mph 1017.7mb 64f 57f
9:50 9ft 11s 8s 7 11 mph 1017.5mb 64f 57f
8:50 9ft 11s 7s 11
mph
1017mb 64f 56f
7:50 9.5ft 11s 8s 13 16 mph 1016.6mb 64f 56f
6:50 10ft 11s 8s 13 18 mph 1016mb 63f 56f
5:50 10ft 11s 7s 18 22 mph 1015.7mb 62f 57f
4:50 8.5ft 11s 6s 20 25 mph 1015.3mb 62f 56f
3:50 8.5ft 10s 6s 18 25 mph 1015.6mb 62f 54f
2:50 9ft 9s 6s 20 22 mph 1015.4mb 62f 53f
1:50 10ft 11s 7s 25 27 mph 1015.1mb 61f 53f
12:50 10ft 11s 7s 25 31 mph 1014.8mb 61f 54f
11:50 10ft 10s 6s 27 29 mph 1014.4mb 61f 54f
10:50 10.5ft 8s 7s 25 29 mph 1014.2mb 61f 54f
9:50 10ft 8s 6s 27 34 mph 1013.3mb 60f 54f
8:50 10.5ft 9s 6s 29 31 mph 1012.9mb 60f 54f
7:50 10.5ft 10s 7s 29 34 mph 1012.3mb 61f 53f
6:50 11ft 9s 6s 29 36 mph 1011.2mb 61f 53f
5:50 10.5ft 10s 6s 29 36 mph 1010.4mb 61f 53f
4:50 11.5ft 8s 7s 31 36 mph 1009.8mb 61f 53f
3:50 11ft 9s 6s 31 38 mph 1009.4mb 60f 53f
2:50 11ft 9s 6s 34 40 mph 1009.1mb 60f 53f
1:50 11.5ft 10s 6s 34 43 mph 1009.1mb 61f 53f
12:50 11.5ft 8s 6s 34 43 mph 1009.2mb 61f 53f
vie 05/01 11:50 11ft 9s 6s 34 40 mph 1008.8mb 61f 53f
10:50 11ft 8s 6s 31 38 mph 1009.3mb 61f 53f
9:50 11.5ft 8s 6s 31 38 mph 1009.1mb 60f 53f
8:50 13ft 9s 7s 34 40 mph 1008.3mb 61f 54f
7:50 13.5ft 9s 7s 34 43 mph 1007.6mb 60f 54f
6:50 13ft 9s 7s 36 43 mph 1006.8mb 61f 55f
5:50 13ft 8s 7s 36 43 mph 1006.6mb 61f 56f
4:50 12.5ft 9s 7s 34 43 mph 1006.2mb 62f 56f
3:50 12ft 8s 6s 34 38 mph 1006.3mb 60f 57f
2:50 12ft 9s 7s 34 38 mph 1006.4mb 59f 57f
1:50 12.5ft 9s 7s 34 40 mph 1006.4mb 57f 57f
12:50 13ft 8s 7s 34 40 mph 1006.8mb 59f 57f
11:50 12.5ft 9s 7s 36 45 mph 1006.6mb 60f 57f
10:50 12ft 9s 7s 34 40 mph 1007mb 62f 57f
9:50 10ft 7s 6s 25 31 mph 1007.7mb 62f 55f
8:50 8ft 7s 6s 43 58 mph 1004mb 62f 58f